Time;durP1;ratioP1;P1;durP2;ratioP2;P2;SDS_P1;SDS_P2;PMS_P1;PMS_P2;Temp;Humidity;BMP_temperature;BMP_pressure;BME280_temperature;BME280_humidity;BME280_pressure;Samples;Min_cycle;Max_cycle;Signal;HPM_P1;HPM_P2
2023/12/12 00:00:47;;;;;;;8.70;2.40;;;4.40;99.90;;;;;;5006383;28;20435;-34
2023/12/12 00:03:13;;;;;;;10.38;2.83;;;4.50;99.90;;;;;;5003286;28;20147;-35
2023/12/12 00:05:38;;;;;;;8.27;3.13;;;4.50;99.90;;;;;;5006507;28;20053;-39
2023/12/12 00:08:04;;;;;;;5.88;2.63;;;4.50;99.90;;;;;;5007829;28;20523;-34
2023/12/12 00:10:30;;;;;;;6.03;2.70;;;4.50;99.90;;;;;;5003852;28;20139;-34
2023/12/12 00:12:55;;;;;;;8.50;2.90;;;4.50;99.90;;;;;;5006195;28;20112;-34
2023/12/12 00:15:21;;;;;;;8.52;3.00;;;4.50;99.90;;;;;;5004361;28;20057;-34
2023/12/12 00:17:47;;;;;;;6.07;2.70;;;4.60;99.90;;;;;;5006079;28;20050;-34
2023/12/12 00:20:12;;;;;;;7.13;2.92;;;4.60;99.90;;;;;;5003814;28;20058;-34
2023/12/12 00:22:38;;;;;;;6.72;2.45;;;4.60;99.90;;;;;;5007120;28;20128;-48
2023/12/12 00:25:04;;;;;;;7.45;2.60;;;4.60;99.90;;;;;;5009245;28;20050;-34
2023/12/12 00:27:29;;;;;;;4.63;1.98;;;4.60;99.90;;;;;;5006695;28;20060;-34
2023/12/12 00:29:55;;;;;;;6.03;2.10;;;4.70;99.90;;;;;;5004021;28;20124;-34
2023/12/12 00:32:21;;;;;;;8.23;2.50;;;4.70;99.90;;;;;;5004044;28;20520;-34
2023/12/12 00:34:47;;;;;;;6.50;2.63;;;4.80;99.90;;;;;;5007017;28;20076;-34
2023/12/12 00:37:12;;;;;;;5.75;2.45;;;4.80;99.90;;;;;;5005233;28;20050;-34
2023/12/12 00:39:39;;;;;;;7.30;2.13;;;4.80;99.90;;;;;;5004359;28;20050;-38
2023/12/12 00:42:05;;;;;;;7.78;2.30;;;4.80;99.90;;;;;;5002983;28;20057;-34
2023/12/12 00:44:31;;;;;;;10.38;2.75;;;4.90;99.90;;;;;;5003311;28;20054;-34
2023/12/12 00:46:57;;;;;;;6.13;2.13;;;4.90;99.90;;;;;;5005094;28;20080;-35
2023/12/12 00:49:22;;;;;;;6.55;2.28;;;4.90;99.90;;;;;;5005688;28;20046;-34
2023/12/12 00:51:48;;;;;;;5.78;2.50;;;4.90;99.90;;;;;;5004440;28;20077;-45
2023/12/12 00:54:13;;;;;;;7.57;2.40;;;4.90;99.90;;;;;;5004964;28;20093;-34
2023/12/12 00:56:39;;;;;;;5.53;2.60;;;5.00;99.90;;;;;;5007071;28;20527;-34
2023/12/12 00:59:05;;;;;;;6.07;2.17;;;5.00;99.90;;;;;;5003945;28;20428;-34
2023/12/12 01:01:30;;;;;;;9.30;2.95;;;5.00;99.90;;;;;;5002539;28;20058;-34
2023/12/12 01:03:56;;;;;;;8.98;2.78;;;5.10;99.90;;;;;;5004063;28;20423;-34
2023/12/12 01:06:23;;;;;;;8.70;3.17;;;5.10;99.90;;;;;;5004245;28;20415;-34
2023/12/12 01:08:49;;;;;;;9.27;2.47;;;5.10;99.90;;;;;;5002291;28;20057;-34
2023/12/12 01:11:15;;;;;;;7.68;2.95;;;5.20;99.90;;;;;;5017588;28;20536;-44
2023/12/12 01:13:40;;;;;;;10.50;3.40;;;5.10;99.90;;;;;;5005355;28;20087;-34
2023/12/12 01:16:06;;;;;;;8.75;3.83;;;5.20;99.90;;;;;;5005121;28;20695;-34
2023/12/12 01:18:34;;;;;;;11.93;4.00;;;5.20;99.90;;;;;;5003388;28;20522;-34
2023/12/12 01:21:00;;;;;;;16.45;4.80;;;5.20;99.90;;;;;;5006548;28;20246;-34
2023/12/12 01:23:26;;;;;;;13.00;4.82;;;5.20;99.90;;;;;;5003500;28;20053;-34
2023/12/12 01:25:52;;;;;;;13.57;5.20;;;5.20;99.90;;;;;;5005688;28;20065;-34
2023/12/12 01:28:17;;;;;;;11.05;5.60;;;5.20;99.90;;;;;;5004892;28;20056;-43
2023/12/12 01:30:43;;;;;;;12.93;5.40;;;5.30;99.90;;;;;;5004358;28;20293;-34
2023/12/12 01:33:09;;;;;;;11.32;5.40;;;5.30;99.90;;;;;;5005960;28;20061;-48
2023/12/12 01:35:34;;;;;;;16.73;6.30;;;5.30;99.90;;;;;;5002236;28;20120;-34
2023/12/12 01:38:00;;;;;;;17.67;6.55;;;5.30;99.90;;;;;;5006894;28;20052;-34
2023/12/12 01:40:25;;;;;;;15.00;5.95;;;5.30;99.90;;;;;;5004347;28;20045;-34
2023/12/12 01:43:02;;;;;;;15.40;6.70;;;5.40;99.90;;;;;;5006883;28;20064;-34
2023/12/12 01:45:28;;;;;;;14.90;6.38;;;5.40;99.90;;;;;;5005048;28;20064;-34
2023/12/12 01:47:54;;;;;;;16.33;6.03;;;5.40;99.90;;;;;;5001342;28;20523;-34
2023/12/12 01:50:20;;;;;;;15.35;6.78;;;5.40;99.90;;;;;;5005273;28;20398;-35
2023/12/12 01:52:45;;;;;;;15.82;6.90;;;5.40;99.90;;;;;;5003792;28;20069;-34
2023/12/12 01:55:11;;;;;;;18.02;6.95;;;5.40;99.90;;;;;;5002555;28;20077;-34
2023/12/12 01:57:37;;;;;;;23.10;7.10;;;5.40;99.90;;;;;;5005733;28;20081;-34
2023/12/12 02:00:03;;;;;;;16.42;6.93;;;5.40;99.90;;;;;;5004704;28;20050;-34
2023/12/12 02:02:29;;;;;;;17.67;7.13;;;5.40;99.90;;;;;;5002106;28;20046;-34
2023/12/12 02:04:54;;;;;;;19.58;8.30;;;5.50;99.90;;;;;;5006948;28;20073;-34
2023/12/12 02:07:21;;;;;;;17.55;7.65;;;5.40;99.90;;;;;;5004027;28;20042;-35
2023/12/12 02:09:48;;;;;;;18.05;7.75;;;5.50;99.90;;;;;;5004082;28;20041;-39
2023/12/12 02:12:14;;;;;;;23.00;7.72;;;5.50;99.90;;;;;;5001074;28;20073;-34
2023/12/12 02:14:39;;;;;;;19.60;6.97;;;5.50;99.90;;;;;;5003013;28;20771;-34
2023/12/12 02:17:05;;;;;;;22.52;7.88;;;5.60;99.90;;;;;;5000350;28;20381;-33
2023/12/12 02:19:31;;;;;;;18.98;7.90;;;5.60;99.90;;;;;;5004104;28;20045;-34
2023/12/12 02:21:57;;;;;;;21.52;7.95;;;5.60;99.90;;;;;;5003209;28;20046;-34
2023/12/12 02:24:23;;;;;;;20.80;7.50;;;5.70;99.90;;;;;;5008470;28;20046;-34
2023/12/12 02:26:48;;;;;;;20.98;8.30;;;5.70;99.90;;;;;;5008085;28;20256;-34
2023/12/12 02:29:14;;;;;;;22.58;8.10;;;5.80;99.90;;;;;;5004418;28;20132;-34
2023/12/12 02:31:40;;;;;;;20.80;8.05;;;5.80;99.90;;;;;;5007605;28;20051;-34
2023/12/12 02:34:06;;;;;;;26.58;8.32;;;5.80;99.90;;;;;;5005665;28;20101;-34
2023/12/12 02:36:31;;;;;;;27.80;9.00;;;5.80;99.90;;;;;;5003916;28;20069;-34
2023/12/12 02:38:57;;;;;;;21.20;7.80;;;5.80;99.90;;;;;;5001730;28;20095;-34
2023/12/12 02:41:22;;;;;;;20.90;8.05;;;5.80;99.90;;;;;;5003400;28;20041;-34
2023/12/12 02:43:48;;;;;;;20.40;8.02;;;5.80;99.90;;;;;;5009367;28;20136;-34
2023/12/12 02:46:14;;;;;;;18.27;8.10;;;5.80;99.90;;;;;;5006639;28;20057;-35
2023/12/12 02:48:39;;;;;;;23.00;8.48;;;5.80;99.90;;;;;;5008224;28;20148;-34
2023/12/12 02:51:05;;;;;;;19.95;8.20;;;5.80;99.90;;;;;;5007468;28;20045;-36
2023/12/12 02:53:31;;;;;;;19.83;7.95;;;5.80;99.90;;;;;;5009933;28;20054;-34
2023/12/12 02:55:56;;;;;;;23.25;8.30;;;5.80;99.90;;;;;;5007621;28;20064;-34
2023/12/12 02:58:22;;;;;;;17.92;8.07;;;5.80;99.90;;;;;;5006430;28;20050;-34
2023/12/12 03:00:48;;;;;;;24.67;9.05;;;5.80;99.90;;;;;;5009476;28;20507;-34
2023/12/12 03:03:13;;;;;;;15.98;7.18;;;5.80;99.90;;;;;;5007389;28;20054;-36
2023/12/12 03:05:39;;;;;;;21.05;8.82;;;5.80;99.90;;;;;;5004678;28;20524;-34
2023/12/12 03:08:04;;;;;;;26.23;8.75;;;5.80;99.90;;;;;;5010220;28;20096;-35
2023/12/12 03:10:30;;;;;;;17.40;7.57;;;5.90;99.90;;;;;;5006815;28;20077;-34
2023/12/12 03:12:56;;;;;;;20.48;8.82;;;5.90;99.90;;;;;;5005388;28;20140;-34
2023/12/12 03:15:21;;;;;;;22.60;8.90;;;5.90;99.90;;;;;;5006929;28;20062;-34
2023/12/12 03:17:47;;;;;;;22.33;9.02;;;5.90;99.90;;;;;;5007197;28;20118;-34
2023/12/12 03:20:13;;;;;;;23.55;8.18;;;5.90;99.90;;;;;;5004990;28;20058;-35
2023/12/12 03:22:39;;;;;;;30.05;8.98;;;5.90;99.90;;;;;;5004519;28;20068;-36
2023/12/12 03:25:05;;;;;;;25.42;8.20;;;5.90;99.90;;;;;;5008158;28;20062;-36
2023/12/12 03:27:31;;;;;;;20.83;8.32;;;5.90;99.90;;;;;;5004660;28;20069;-34
2023/12/12 03:29:56;;;;;;;20.80;8.32;;;5.90;99.90;;;;;;5008812;28;20101;-34
2023/12/12 03:32:22;;;;;;;22.95;8.38;;;6.00;99.90;;;;;;5006999;28;20119;-34
2023/12/12 03:34:48;;;;;;;19.98;8.50;;;5.90;99.90;;;;;;5005642;28;20443;-34
2023/12/12 03:37:15;;;;;;;19.88;8.15;;;5.90;99.90;;;;;;5007122;28;20061;-34
2023/12/12 03:39:41;;;;;;;22.55;8.55;;;5.90;99.90;;;;;;5006221;28;20488;-35
2023/12/12 03:42:07;;;;;;;24.65;8.85;;;6.00;99.90;;;;;;5007341;28;20052;-36
2023/12/12 03:44:32;;;;;;;26.80;9.30;;;6.00;99.90;;;;;;5002431;28;20382;-34
2023/12/12 03:46:58;;;;;;;22.25;8.35;;;6.00;99.90;;;;;;5012128;28;20125;-34
2023/12/12 03:49:23;;;;;;;20.70;8.07;;;6.00;99.90;;;;;;5004998;28;20042;-34
2023/12/12 03:51:49;;;;;;;18.15;7.82;;;6.00;99.90;;;;;;5006638;28;20057;-34
2023/12/12 03:54:15;;;;;;;23.13;8.93;;;6.00;99.90;;;;;;5006017;28;20040;-34
2023/12/12 03:56:40;;;;;;;22.85;8.02;;;6.00;99.90;;;;;;5002666;28;20064;-40
2023/12/12 03:59:06;;;;;;;20.83;8.35;;;6.00;99.90;;;;;;5003308;28;20527;-35
2023/12/12 04:01:32;;;;;;;23.33;8.52;;;6.00;99.90;;;;;;5004463;28;20496;-34
2023/12/12 04:03:58;;;;;;;23.67;9.07;;;6.00;99.90;;;;;;5007590;28;20053;-34
2023/12/12 04:06:24;;;;;;;21.38;8.73;;;6.00;99.90;;;;;;5006830;28;20491;-34
2023/12/12 04:08:50;;;;;;;24.58;8.35;;;6.00;99.90;;;;;;5006305;28;20060;-34
2023/12/12 04:11:16;;;;;;;20.10;7.70;;;6.10;99.90;;;;;;5007111;28;20054;-35
2023/12/12 04:13:41;;;;;;;21.55;7.85;;;6.10;99.90;;;;;;5003356;28;20748;-41
2023/12/12 04:16:07;;;;;;;31.13;9.32;;;6.10;99.90;;;;;;5003977;28;20403;-34
2023/12/12 04:18:33;;;;;;;28.05;9.73;;;6.20;99.90;;;;;;5002989;28;20496;-34
2023/12/12 04:20:59;;;;;;;29.80;9.50;;;6.10;99.90;;;;;;5005342;28;20052;-34
2023/12/12 04:23:24;;;;;;;29.60;9.73;;;6.20;99.90;;;;;;5004913;28;20042;-34
2023/12/12 04:25:50;;;;;;;22.52;8.45;;;6.20;99.90;;;;;;5003683;28;20138;-34
2023/12/12 04:28:15;;;;;;;26.25;9.80;;;6.20;99.90;;;;;;5004980;28;20104;-34
2023/12/12 04:30:41;;;;;;;29.55;9.73;;;6.20;99.90;;;;;;5004785;28;20053;-35
2023/12/12 04:33:07;;;;;;;28.60;9.10;;;6.20;99.90;;;;;;5003630;28;20052;-34
2023/12/12 04:35:33;;;;;;;25.23;9.07;;;6.20;99.90;;;;;;5002699;28;20053;-34
2023/12/12 04:37:58;;;;;;;26.00;9.85;;;6.20;99.90;;;;;;5006583;28;20061;-34
2023/12/12 04:40:27;;;;;;;39.08;12.07;;;6.10;99.90;;;;;;5006188;28;20464;-34
2023/12/12 04:42:53;;;;;;;29.17;10.38;;;6.20;99.90;;;;;;5009234;28;20504;-34
2023/12/12 04:45:19;;;;;;;26.63;10.25;;;6.20;99.90;;;;;;5005925;28;20092;-34
2023/12/12 04:47:44;;;;;;;29.38;10.68;;;6.20;99.90;;;;;;5005430;28;20054;-35
2023/12/12 04:50:10;;;;;;;46.25;14.18;;;6.20;99.90;;;;;;5002667;28;20397;-34
2023/12/12 04:52:36;;;;;;;29.77;11.75;;;6.20;99.90;;;;;;5004199;28;20142;-35
2023/12/12 04:55:02;;;;;;;32.25;12.30;;;6.20;99.90;;;;;;5006626;28;20099;-34
2023/12/12 04:57:28;;;;;;;35.25;11.98;;;6.20;99.90;;;;;;5002967;28;20218;-35
2023/12/12 04:59:53;;;;;;;39.00;14.02;;;6.20;99.90;;;;;;5006792;28;20411;-34
2023/12/12 05:02:20;;;;;;;40.22;13.80;;;6.30;99.90;;;;;;5007190;28;20196;-34
2023/12/12 05:04:45;;;;;;;36.67;13.95;;;6.20;99.90;;;;;;5000329;28;20223;-34
2023/12/12 05:07:11;;;;;;;43.42;15.60;;;6.30;99.90;;;;;;5005512;28;20197;-35
2023/12/12 05:09:37;;;;;;;41.40;14.45;;;6.30;99.90;;;;;;5005665;28;20107;-34
2023/12/12 05:12:03;;;;;;;41.85;15.85;;;6.30;99.90;;;;;;5007390;28;20488;-34
2023/12/12 05:14:29;;;;;;;47.53;16.20;;;6.30;99.90;;;;;;5006305;28;20057;-35
2023/12/12 05:16:55;;;;;;;40.47;14.57;;;6.30;99.90;;;;;;5005472;28;20164;-34
2023/12/12 05:19:20;;;;;;;39.47;14.07;;;6.30;99.90;;;;;;5005355;28;20140;-34
2023/12/12 05:21:46;;;;;;;41.70;15.20;;;6.30;99.90;;;;;;5004557;28;20050;-34
2023/12/12 05:24:12;;;;;;;39.80;14.70;;;6.20;99.90;;;;;;5002284;28;20057;-41
2023/12/12 05:26:38;;;;;;;46.30;17.15;;;6.20;99.90;;;;;;4999285;28;20089;-34
2023/12/12 05:29:04;;;;;;;46.55;17.38;;;6.20;99.90;;;;;;5002137;28;20515;-34
2023/12/12 05:31:29;;;;;;;41.58;16.00;;;6.30;99.90;;;;;;5003170;28;20054;-35
2023/12/12 05:33:55;;;;;;;44.63;16.25;;;6.30;99.90;;;;;;5003638;28;20377;-34
2023/12/12 05:36:21;;;;;;;38.08;16.88;;;6.30;99.90;;;;;;5006061;28;20424;-34
2023/12/12 05:38:46;;;;;;;52.10;18.10;;;6.30;99.90;;;;;;5002652;28;20097;-34
2023/12/12 05:41:12;;;;;;;39.50;16.45;;;6.30;99.90;;;;;;5002286;28;20049;-35
2023/12/12 05:43:38;;;;;;;43.53;17.55;;;6.30;99.90;;;;;;5002693;28;20614;-34
2023/12/12 05:46:04;;;;;;;37.50;16.80;;;6.30;99.90;;;;;;5003157;28;20061;-34
2023/12/12 05:48:30;;;;;;;35.97;17.05;;;6.30;99.90;;;;;;5005015;28;20050;-34
2023/12/12 05:50:56;;;;;;;35.50;16.33;;;6.30;99.90;;;;;;5003037;28;20377;-34
2023/12/12 05:53:22;;;;;;;39.10;16.33;;;6.30;99.90;;;;;;5004300;28;20057;-40
2023/12/12 05:55:47;;;;;;;38.42;16.13;;;6.30;99.90;;;;;;5003739;28;20046;-34
2023/12/12 05:58:13;;;;;;;38.72;16.45;;;6.40;99.90;;;;;;5002166;28;20052;-34
2023/12/12 06:00:39;;;;;;;35.47;16.55;;;6.40;99.90;;;;;;5004484;28;20058;-34
2023/12/12 06:03:05;;;;;;;41.00;16.70;;;6.30;99.90;;;;;;5001236;28;20171;-34
2023/12/12 06:05:31;;;;;;;36.25;16.20;;;6.30;99.90;;;;;;5003357;28;20141;-34
2023/12/12 06:07:57;;;;;;;38.30;17.40;;;6.30;99.90;;;;;;5003360;28;20599;-34
2023/12/12 06:10:22;;;;;;;38.72;17.17;;;6.30;99.90;;;;;;5001924;28;20701;-34
2023/12/12 06:12:48;;;;;;;34.50;16.27;;;6.30;99.90;;;;;;5004709;28;20050;-36
2023/12/12 06:15:14;;;;;;;31.33;15.65;;;6.20;99.90;;;;;;5003516;28;20053;-35
2023/12/12 06:17:40;;;;;;;34.17;15.70;;;6.20;99.90;;;;;;4999377;28;20053;-36
2023/12/12 06:20:07;;;;;;;29.17;14.40;;;6.10;99.90;;;;;;5003238;28;20122;-34
2023/12/12 06:22:34;;;;;;;36.67;16.13;;;6.10;99.90;;;;;;5000925;28;20472;-34
2023/12/12 06:24:59;;;;;;;33.88;15.38;;;6.00;99.90;;;;;;5005265;28;20496;-34
2023/12/12 06:27:25;;;;;;;35.08;15.73;;;6.00;99.90;;;;;;5005386;28;20046;-34
2023/12/12 06:29:51;;;;;;;35.85;17.17;;;6.00;99.90;;;;;;5006782;28;20052;-34
2023/12/12 06:32:16;;;;;;;36.67;17.13;;;5.90;99.90;;;;;;5005881;28;20192;-34
2023/12/12 06:34:43;;;;;;;34.40;16.27;;;5.80;99.90;;;;;;5002870;28;20124;-35
2023/12/12 06:37:10;;;;;;;30.52;15.70;;;5.80;99.90;;;;;;5006434;28;20053;-34
2023/12/12 06:39:36;;;;;;;27.10;14.90;;;5.70;99.90;;;;;;4983678;28;20042;-34
2023/12/12 06:42:02;;;;;;;32.35;15.93;;;5.60;99.90;;;;;;5014649;28;20535;-34
2023/12/12 06:44:28;;;;;;;37.28;16.95;;;5.60;99.90;;;;;;5001035;28;20046;-35
2023/12/12 06:46:53;;;;;;;34.47;16.67;;;5.50;99.90;;;;;;5003583;28;20064;-35
2023/12/12 06:49:19;;;;;;;28.35;16.17;;;5.50;99.90;;;;;;5000997;28;20084;-35
2023/12/12 06:51:45;;;;;;;42.47;17.50;;;5.40;99.90;;;;;;5000991;28;20050;-34
2023/12/12 06:54:10;;;;;;;31.98;16.75;;;5.40;99.90;;;;;;5004690;28;20061;-39
2023/12/12 06:56:36;;;;;;;34.67;16.30;;;5.30;99.90;;;;;;5001457;28;20061;-34
2023/12/12 06:59:02;;;;;;;29.38;15.90;;;5.30;99.90;;;;;;5000667;28;20484;-34
2023/12/12 07:01:27;;;;;;;33.83;16.27;;;5.30;99.90;;;;;;5000653;28;20567;-34
2023/12/12 07:03:53;;;;;;;32.10;16.70;;;5.20;99.90;;;;;;5002573;28;20046;-34
2023/12/12 07:06:19;;;;;;;33.72;17.70;;;5.20;99.90;;;;;;5008528;28;20058;-34
2023/12/12 07:08:44;;;;;;;35.47;17.38;;;5.10;99.90;;;;;;5009804;28;20050;-35
2023/12/12 07:11:11;;;;;;;33.63;17.83;;;5.10;99.90;;;;;;5008278;28;20060;-34
2023/12/12 07:13:37;;;;;;;35.67;18.17;;;5.00;99.90;;;;;;5021819;28;20057;-35
2023/12/12 07:16:04;;;;;;;34.22;17.30;;;5.00;99.90;;;;;;5008701;28;20415;-34
2023/12/12 07:18:30;;;;;;;35.10;17.38;;;5.00;99.90;;;;;;5007259;28;20100;-35
2023/12/12 07:20:58;;;;;;;38.58;17.70;;;5.00;99.90;;;;;;5008018;28;20528;-34
2023/12/12 07:23:23;;;;;;;35.92;17.27;;;5.00;99.90;;;;;;5009838;28;20103;-34
2023/12/12 07:25:49;;;;;;;38.92;17.98;;;4.90;99.90;;;;;;5014758;28;20054;-35
2023/12/12 07:28:15;;;;;;;37.92;17.65;;;4.90;99.90;;;;;;5009338;28;20054;-43
2023/12/12 07:30:42;;;;;;;38.25;17.88;;;4.90;99.90;;;;;;5006805;28;20570;-34
2023/12/12 07:33:08;;;;;;;36.05;17.95;;;4.90;99.90;;;;;;5008129;28;20053;-34
2023/12/12 07:35:33;;;;;;;40.30;19.67;;;4.90;99.90;;;;;;5008932;28;20046;-34
2023/12/12 07:38:01;;;;;;;35.65;18.60;;;4.90;99.90;;;;;;5009464;28;20503;-34
2023/12/12 07:40:27;;;;;;;42.92;18.67;;;4.80;99.90;;;;;;5006566;28;20119;-34
2023/12/12 07:42:53;;;;;;;35.97;18.55;;;4.80;99.90;;;;;;5011408;28;20081;-34
2023/12/12 07:45:18;;;;;;;44.00;20.38;;;4.80;99.90;;;;;;5010210;28;20152;-35
2023/12/12 07:47:44;;;;;;;37.90;19.05;;;4.80;99.90;;;;;;5007022;28;20053;-34
2023/12/12 07:50:10;;;;;;;38.22;18.83;;;4.80;99.90;;;;;;5006715;28;20050;-34
2023/12/12 07:52:36;;;;;;;49.33;20.30;;;4.70;99.90;;;;;;5006435;28;20162;-34
2023/12/12 07:55:01;;;;;;;47.40;21.00;;;4.70;99.90;;;;;;5003417;28;20058;-34
2023/12/12 07:57:27;;;;;;;48.75;21.25;;;4.70;99.90;;;;;;5007982;28;20080;-34
2023/12/12 07:59:53;;;;;;;43.88;21.85;;;4.70;99.90;;;;;;5005739;28;20641;-34
2023/12/12 08:02:18;;;;;;;51.53;22.13;;;4.70;99.90;;;;;;5006075;28;20412;-34
2023/12/12 08:04:44;;;;;;;42.75;20.65;;;4.70;99.90;;;;;;5005491;28;20058;-44
2023/12/12 08:07:10;;;;;;;44.13;21.90;;;4.70;99.90;;;;;;5002607;28;20516;-34
2023/12/12 08:09:36;;;;;;;42.80;22.08;;;4.70;99.90;;;;;;5006702;28;20411;-34
2023/12/12 08:12:02;;;;;;;51.03;22.25;;;4.70;99.90;;;;;;5003708;28;20046;-34
2023/12/12 08:14:28;;;;;;;44.97;22.65;;;4.70;99.90;;;;;;5012599;28;20049;-34
2023/12/12 08:16:53;;;;;;;51.25;23.17;;;4.70;99.90;;;;;;5004975;28;20105;-34
2023/12/12 08:19:20;;;;;;;55.58;23.52;;;4.70;99.90;;;;;;5005593;28;20169;-34
2023/12/12 08:21:46;;;;;;;55.08;24.17;;;4.70;99.90;;;;;;5004236;28;20495;-35
2023/12/12 08:24:12;;;;;;;48.72;22.63;;;4.80;99.90;;;;;;5003288;28;20092;-38
2023/12/12 08:26:43;;;;;;;53.90;25.38;;;4.80;99.90;;;;;;5004339;28;20050;-34
2023/12/12 08:29:14;;;;;;;48.78;22.35;;;4.80;99.90;;;;;;5019236;28;20084;-36
2023/12/12 08:31:40;;;;;;;59.72;24.40;;;4.80;99.90;;;;;;5003110;28;20045;-34
2023/12/12 08:34:06;;;;;;;63.90;25.95;;;4.80;99.90;;;;;;5005643;28;20052;-34
2023/12/12 08:36:32;;;;;;;58.72;27.02;;;4.90;99.90;;;;;;5004130;28;20403;-35
2023/12/12 08:38:59;;;;;;;61.40;26.30;;;4.90;99.90;;;;;;5003501;28;20488;-34
2023/12/12 08:41:30;;;;;;;46.10;22.90;;;4.90;99.90;;;;;;5003583;28;20133;-34
2023/12/12 08:44:00;;;;;;;65.30;27.63;;;4.90;99.90;;;;;;5000033;28;20052;-37
2023/12/12 08:46:26;;;;;;;55.88;25.70;;;5.00;99.90;;;;;;5004426;28;20058;-35
2023/12/12 08:48:58;;;;;;;53.17;25.77;;;5.00;99.90;;;;;;5005908;28;20510;-34
2023/12/12 08:51:26;;;;;;;62.85;27.27;;;5.10;99.90;;;;;;5004508;28;20062;-34
2023/12/12 08:53:52;;;;;;;58.03;27.27;;;5.10;99.90;;;;;;5006698;28;20061;-34
2023/12/12 08:56:18;;;;;;;54.55;25.58;;;5.10;99.90;;;;;;5003630;28;20057;-34
2023/12/12 08:58:46;;;;;;;53.13;26.05;;;5.10;99.90;;;;;;5000477;28;20073;-34
2023/12/12 09:01:13;;;;;;;53.17;24.55;;;5.20;99.90;;;;;;5001677;28;20518;-34
2023/12/12 09:03:39;;;;;;;56.45;25.13;;;5.20;99.90;;;;;;5005328;28;20140;-35
2023/12/12 09:06:05;;;;;;;54.08;22.45;;;5.20;99.90;;;;;;5002864;28;20051;-46
2023/12/12 09:08:31;;;;;;;60.33;26.95;;;5.20;99.90;;;;;;5004283;28;20048;-35
2023/12/12 09:10:58;;;;;;;60.30;27.17;;;5.20;99.90;;;;;;5005011;28;20104;-34
2023/12/12 09:13:25;;;;;;;56.00;23.45;;;5.20;99.90;;;;;;5005143;28;20046;-35
2023/12/12 09:15:50;;;;;;;71.07;26.35;;;5.30;99.90;;;;;;5006063;28;20520;-35
2023/12/12 09:18:16;;;;;;;57.80;23.75;;;5.30;99.90;;;;;;5002120;28;20050;-34
2023/12/12 09:20:42;;;;;;;77.35;25.67;;;5.30;99.90;;;;;;5003262;28;20053;-34
2023/12/12 09:23:07;;;;;;;65.38;24.67;;;5.30;99.90;;;;;;5002659;28;20049;-41
2023/12/12 09:25:33;;;;;;;52.20;21.50;;;5.30;99.90;;;;;;5001698;28;20057;-35
2023/12/12 09:27:59;;;;;;;49.35;22.65;;;5.40;99.90;;;;;;5004709;28;20172;-34
2023/12/12 09:30:24;;;;;;;41.20;20.90;;;5.40;99.90;;;;;;5003577;28;20105;-35
2023/12/12 09:32:50;;;;;;;44.85;21.02;;;5.40;99.90;;;;;;5004233;28;20141;-34
2023/12/12 09:35:16;;;;;;;44.88;21.38;;;5.40;99.90;;;;;;5010071;28;20068;-35
2023/12/12 09:37:42;;;;;;;45.22;21.33;;;5.50;99.90;;;;;;5003303;28;20112;-35
2023/12/12 09:40:09;;;;;;;37.00;18.42;;;5.50;99.90;;;;;;5003636;28;20091;-34
2023/12/12 09:42:35;;;;;;;38.80;20.10;;;5.50;99.90;;;;;;5002507;28;20133;-35
2023/12/12 09:45:07;;;;;;;43.75;19.60;;;5.50;99.90;;;;;;5002729;28;20087;-35
2023/12/12 09:47:33;;;;;;;41.10;18.95;;;5.60;99.90;;;;;;5003077;28;20136;-34
2023/12/12 09:49:59;;;;;;;39.10;18.80;;;5.60;99.90;;;;;;5004894;28;20560;-35
2023/12/12 09:52:28;;;;;;;43.67;19.73;;;5.60;99.90;;;;;;5002233;28;20088;-34
2023/12/12 09:54:55;;;;;;;35.65;19.45;;;5.60;99.90;;;;;;5003323;28;20583;-35
2023/12/12 09:57:21;;;;;;;36.83;17.85;;;5.60;99.90;;;;;;5001785;28;20103;-35
2023/12/12 09:59:47;;;;;;;34.13;17.23;;;5.70;99.90;;;;;;5009385;28;20058;-35
2023/12/12 10:02:19;;;;;;;35.25;17.92;;;5.70;99.90;;;;;;5003489;28;20149;-34
2023/12/12 10:04:45;;;;;;;32.33;16.52;;;5.80;99.90;;;;;;5006477;28;20046;-35
2023/12/12 10:07:17;;;;;;;29.27;16.75;;;5.80;99.90;;;;;;5004497;28;20052;-35
2023/12/12 10:09:43;;;;;;;32.47;17.33;;;5.90;99.90;;;;;;5002582;28;20476;-35
2023/12/12 10:12:08;;;;;;;33.70;17.38;;;6.00;99.90;;;;;;5007516;28;20056;-34
2023/12/12 10:14:40;;;;;;;29.52;16.33;;;6.10;99.90;;;;;;5005699;28;20050;-35
2023/12/12 10:17:06;;;;;;;32.78;16.15;;;6.10;99.90;;;;;;5005998;28;20042;-35
2023/12/12 10:19:32;;;;;;;33.38;16.73;;;6.20;99.90;;;;;;5005341;28;20054;-35
2023/12/12 10:22:05;;;;;;;36.00;16.50;;;6.30;99.90;;;;;;5000033;28;20045;-35
2023/12/12 10:24:31;;;;;;;34.10;16.45;;;6.40;99.90;;;;;;5005461;28;20046;-34
2023/12/12 10:26:56;;;;;;;35.72;16.17;;;6.50;99.90;;;;;;5003602;28;20060;-34
2023/12/12 10:29:22;;;;;;;38.75;17.35;;;6.50;99.90;;;;;;4999681;28;20049;-34
2023/12/12 10:31:48;;;;;;;41.47;16.80;;;6.60;99.90;;;;;;5007844;28;20070;-40
2023/12/12 10:34:17;;;;;;;30.50;15.10;;;6.70;99.90;;;;;;5006625;28;20045;-34
2023/12/12 10:36:47;;;;;;;34.70;15.85;;;6.80;99.90;;;;;;5002089;28;20510;-34
2023/12/12 10:39:15;;;;;;;34.47;15.43;;;6.80;99.90;;;;;;5008014;28;20057;-34
2023/12/12 10:41:56;;;;;;;34.70;15.68;;;6.80;99.90;;;;;;5014216;28;20046;-35
2023/12/12 10:44:31;;;;;;;31.27;15.68;;;6.90;99.90;;;;;;5006999;28;20042;-34
2023/12/12 10:46:58;;;;;;;30.40;14.57;;;6.90;99.90;;;;;;5011653;28;20156;-35
2023/12/12 10:49:31;;;;;;;29.40;13.98;;;6.90;99.90;;;;;;5008563;28;20053;-34
2023/12/12 10:52:01;;;;;;;27.10;12.90;;;6.90;99.90;;;;;;5004751;28;20507;-34
2023/12/12 10:54:28;;;;;;;29.17;14.70;;;6.90;99.90;;;;;;5012347;28;20451;-34
2023/12/12 10:56:54;;;;;;;29.20;12.77;;;7.00;99.90;;;;;;5005549;28;20533;-34
2023/12/12 10:59:23;;;;;;;29.10;14.43;;;7.00;99.90;;;;;;5012271;28;20146;-34
2023/12/12 11:01:50;;;;;;;31.90;13.75;;;7.00;99.90;;;;;;5009293;28;20095;-35
2023/12/12 11:04:17;;;;;;;29.90;14.90;;;7.00;99.90;;;;;;5008901;28;20046;-34
2023/12/12 11:06:43;;;;;;;29.85;13.75;;;7.00;99.90;;;;;;5008455;28;20050;-34
2023/12/12 11:09:10;;;;;;;30.05;14.52;;;7.00;99.90;;;;;;5011624;28;20080;-36
2023/12/12 11:11:41;;;;;;;26.42;13.57;;;7.00;99.90;;;;;;5007757;28;20088;-34
2023/12/12 11:14:09;;;;;;;28.98;13.35;;;7.10;99.90;;;;;;5011285;28;20499;-36
2023/12/12 11:16:37;;;;;;;31.55;14.63;;;7.00;99.90;;;;;;5012523;28;20461;-35
2023/12/12 11:19:02;;;;;;;30.15;13.80;;;7.10;99.90;;;;;;5012272;28;20111;-35
2023/12/12 11:21:48;;;;;;;28.88;12.90;;;7.10;99.90;;;;;;5008519;28;20453;-35
2023/12/12 11:24:15;;;;;;;30.10;13.52;;;7.00;99.90;;;;;;5006182;28;20061;-35
2023/12/12 11:26:42;;;;;;;31.75;13.45;;;7.10;99.90;;;;;;5003982;28;20057;-35
2023/12/12 11:29:14;;;;;;;27.58;13.05;;;7.10;99.90;;;;;;5000746;28;20936;-34
2023/12/12 11:32:03;;;;;;;27.80;13.45;;;7.10;99.90;;;;;;5006587;28;20499;-35
2023/12/12 11:34:36;;;;;;;32.13;14.90;;;7.10;99.90;;;;;;5005732;28;20057;-34
2023/12/12 11:37:02;;;;;;;28.00;13.38;;;7.20;99.90;;;;;;5007296;28;20088;-34
2023/12/12 11:39:41;;;;;;;26.83;11.68;;;7.20;99.90;;;;;;5006281;28;20058;-34
2023/12/12 11:42:16;;;;;;;26.20;12.77;;;7.30;99.90;;;;;;5006269;28;20062;-34
2023/12/12 11:44:54;;;;;;;29.23;13.55;;;7.40;99.90;;;;;;5007178;28;20108;-34
2023/12/12 11:47:24;;;;;;;30.23;13.77;;;7.40;99.90;;;;;;5006672;28;20060;-34
2023/12/12 11:50:10;;;;;;;27.83;12.88;;;7.50;99.90;;;;;;5004746;28;20248;-34
2023/12/12 11:52:39;;;;;;;26.92;12.25;;;7.50;99.90;;;;;;5004184;28;20058;-34
2023/12/12 11:55:17;;;;;;;30.23;12.55;;;7.50;99.90;;;;;;5006114;28;20042;-34
2023/12/12 11:57:44;;;;;;;31.55;13.00;;;7.60;99.90;;;;;;5004183;28;20515;-34
2023/12/12 12:00:13;;;;;;;28.90;12.68;;;7.60;99.90;;;;;;5005941;28;20046;-35
2023/12/12 12:02:40;;;;;;;29.38;12.55;;;7.60;99.90;;;;;;5001722;28;20073;-34
2023/12/12 12:05:07;;;;;;;30.85;12.27;;;7.70;99.90;;;;;;5006667;28;20169;-35
2023/12/12 12:07:33;;;;;;;28.58;13.77;;;7.60;99.90;;;;;;5004798;28;20054;-34
2023/12/12 12:09:58;;;;;;;34.38;13.82;;;7.70;99.90;;;;;;5004638;28;20072;-34
2023/12/12 12:12:24;;;;;;;34.38;12.30;;;7.70;99.90;;;;;;5004188;28;20041;-34
2023/12/12 12:14:50;;;;;;;32.35;13.68;;;7.70;99.90;;;;;;5003029;28;20257;-34
2023/12/12 12:17:15;;;;;;;37.90;13.77;;;7.70;99.90;;;;;;5005706;28;20054;-35
2023/12/12 12:19:41;;;;;;;28.02;12.95;;;7.70;99.90;;;;;;5003554;28;20056;-34
2023/12/12 12:22:09;;;;;;;30.90;13.85;;;7.70;99.90;;;;;;5005188;28;20045;-34
2023/12/12 12:24:42;;;;;;;36.25;13.52;;;7.70;99.90;;;;;;5004799;28;20038;-34
2023/12/12 12:27:08;;;;;;;32.35;12.98;;;7.70;99.90;;;;;;5003402;28;20139;-34
2023/12/12 12:29:34;;;;;;;28.77;12.30;;;7.70;99.90;;;;;;5005624;28;20097;-34
2023/12/12 12:32:12;;;;;;;31.40;13.32;;;7.70;99.90;;;;;;5001655;28;20054;-34
2023/12/12 12:34:39;;;;;;;30.70;13.40;;;7.80;99.90;;;;;;4999714;28;21248;-34
2023/12/12 12:37:05;;;;;;;34.97;13.68;;;7.80;99.90;;;;;;5004112;28;20080;-34